sensor_id;sensor_type;location;lat;lon;timestamp;temperature;humidity
54558;DHT22;40452;50.080;20.040;2023-08-17T03:14:21;24.90;70.30
54558;DHT22;40452;50.080;20.040;2023-08-17T03:16:46;24.80;70.90
54558;DHT22;40452;50.080;20.040;2023-08-17T03:19:12;24.80;71.10
54558;DHT22;40452;50.080;20.040;2023-08-17T03:21:38;24.70;70.80
54558;DHT22;40452;50.080;20.040;2023-08-17T03:24:04;24.70;70.90
54558;DHT22;40452;50.080;20.040;2023-08-17T03:26:30;24.80;70.80
54558;DHT22;40452;50.080;20.040;2023-08-17T03:28:55;24.80;70.80
54558;DHT22;40452;50.080;20.040;2023-08-17T03:31:21;24.80;70.90
54558;DHT22;40452;50.080;20.040;2023-08-17T03:33:47;24.80;70.90
54558;DHT22;40452;50.080;20.040;2023-08-17T03:36:13;24.80;70.90
54558;DHT22;40452;50.080;20.040;2023-08-17T03:38:38;24.70;70.80
54558;DHT22;40452;50.080;20.040;2023-08-17T03:41:05;24.80;71.00
54558;DHT22;40452;50.080;20.040;2023-08-17T03:43:31;24.70;71.00
54558;DHT22;40452;50.080;20.040;2023-08-17T03:45:56;24.70;71.10
54558;DHT22;40452;50.080;20.040;2023-08-17T03:48:22;24.90;70.80
54558;DHT22;40452;50.080;20.040;2023-08-17T03:50:54;25.00;70.30
54558;DHT22;40452;50.080;20.040;2023-08-17T03:53:20;25.10;70.00
54558;DHT22;40452;50.080;20.040;2023-08-17T03:55:47;25.10;70.20
54558;DHT22;40452;50.080;20.040;2023-08-17T03:58:12;24.90;70.20
54558;DHT22;40452;50.080;20.040;2023-08-17T04:00:38;24.90;70.50
54558;DHT22;40452;50.080;20.040;2023-08-17T04:03:06;24.80;70.50
54558;DHT22;40452;50.080;20.040;2023-08-17T04:05:31;24.70;70.70
54558;DHT22;40452;50.080;20.040;2023-08-17T04:07:59;24.70;70.70
54558;DHT22;40452;50.080;20.040;2023-08-17T04:10:29;24.60;70.60
54558;DHT22;40452;50.080;20.040;2023-08-17T04:12:56;24.60;71.10
54558;DHT22;40452;50.080;20.040;2023-08-17T04:15:22;24.70;70.80
54558;DHT22;40452;50.080;20.040;2023-08-17T04:17:47;24.90;71.60
54558;DHT22;40452;50.080;20.040;2023-08-17T04:20:13;24.90;70.10
54558;DHT22;40452;50.080;20.040;2023-08-17T04:22:38;24.90;70.30
54558;DHT22;40452;50.080;20.040;2023-08-17T04:25:07;24.90;70.40
54558;DHT22;40452;50.080;20.040;2023-08-17T04:27:33;24.90;70.50
54558;DHT22;40452;50.080;20.040;2023-08-17T04:29:59;24.90;70.40
54558;DHT22;40452;50.080;20.040;2023-08-17T04:32:25;25.00;70.40
54558;DHT22;40452;50.080;20.040;2023-08-17T04:34:50;25.00;70.20
54558;DHT22;40452;50.080;20.040;2023-08-17T04:37:16;25.00;70.60
54558;DHT22;40452;50.080;20.040;2023-08-17T04:39:42;24.90;70.40
54558;DHT22;40452;50.080;20.040;2023-08-17T04:42:09;25.00;70.70
54558;DHT22;40452;50.080;20.040;2023-08-17T04:44:34;25.00;70.90
54558;DHT22;40452;50.080;20.040;2023-08-17T04:47:00;25.00;70.90
54558;DHT22;40452;50.080;20.040;2023-08-17T04:49:26;25.00;71.00
54558;DHT22;40452;50.080;20.040;2023-08-17T04:51:52;24.90;71.00
54558;DHT22;40452;50.080;20.040;2023-08-17T04:56:44;25.00;70.40
54558;DHT22;40452;50.080;20.040;2023-08-17T04:59:10;24.90;71.00
54558;DHT22;40452;50.080;20.040;2023-08-17T05:01:35;24.90;71.40
54558;DHT22;40452;50.080;20.040;2023-08-17T05:04:02;25.00;71.10
54558;DHT22;40452;50.080;20.040;2023-08-17T05:06:29;24.90;71.10
54558;DHT22;40452;50.080;20.040;2023-08-17T05:08:54;24.90;71.20
54558;DHT22;40452;50.080;20.040;2023-08-17T05:11:20;24.90;71.20
54558;DHT22;40452;50.080;20.040;2023-08-17T05:13:45;25.00;71.20
54558;DHT22;40452;50.080;20.040;2023-08-17T05:16:11;25.00;71.00
54558;DHT22;40452;50.080;20.040;2023-08-17T05:18:37;25.00;70.90
54558;DHT22;40452;50.080;20.040;2023-08-17T05:21:02;25.10;71.00
54558;DHT22;40452;50.080;20.040;2023-08-17T05:23:28;25.10;70.70
54558;DHT22;40452;50.080;20.040;2023-08-17T05:25:54;25.00;71.10
54558;DHT22;40452;50.080;20.040;2023-08-17T05:28:20;24.90;71.10
54558;DHT22;40452;50.080;20.040;2023-08-17T05:30:46;24.60;72.00
54558;DHT22;40452;50.080;20.040;2023-08-17T05:33:12;24.30;72.70
54558;DHT22;40452;50.080;20.040;2023-08-17T05:35:38;24.20;73.10
54558;DHT22;40452;50.080;20.040;2023-08-17T05:38:03;24.10;73.10
54558;DHT22;40452;50.080;20.040;2023-08-17T05:40:30;24.00;73.30
54558;DHT22;40452;50.080;20.040;2023-08-17T05:42:56;23.80;73.70
54558;DHT22;40452;50.080;20.040;2023-08-17T05:45:22;23.80;73.70
54558;DHT22;40452;50.080;20.040;2023-08-17T05:47:47;23.80;73.90
54558;DHT22;40452;50.080;20.040;2023-08-17T05:50:13;23.90;73.50
54558;DHT22;40452;50.080;20.040;2023-08-17T05:52:39;23.90;73.30
54558;DHT22;40452;50.080;20.040;2023-08-17T05:55:05;24.00;73.30
54558;DHT22;40452;50.080;20.040;2023-08-17T05:57:31;23.90;73.60
54558;DHT22;40452;50.080;20.040;2023-08-17T05:59:56;23.80;73.90
54558;DHT22;40452;50.080;20.040;2023-08-17T06:02:22;23.70;74.20
54558;DHT22;40452;50.080;20.040;2023-08-17T06:04:48;23.80;74.10
54558;DHT22;40452;50.080;20.040;2023-08-17T06:07:13;23.90;73.90
54558;DHT22;40452;50.080;20.040;2023-08-17T06:09:39;23.90;73.70
54558;DHT22;40452;50.080;20.040;2023-08-17T06:12:05;24.00;73.70
54558;DHT22;40452;50.080;20.040;2023-08-17T06:14:32;24.00;73.70
54558;DHT22;40452;50.080;20.040;2023-08-17T06:16:58;24.00;74.10
54558;DHT22;40452;50.080;20.040;2023-08-17T06:19:23;24.00;74.20
54558;DHT22;40452;50.080;20.040;2023-08-17T06:21:49;24.10;73.50
54558;DHT22;40452;50.080;20.040;2023-08-17T06:24:15;24.10;73.60
54558;DHT22;40452;50.080;20.040;2023-08-17T06:26:40;24.10;72.80
54558;DHT22;40452;50.080;20.040;2023-08-17T06:29:06;24.10;73.60
54558;DHT22;40452;50.080;20.040;2023-08-17T06:31:32;24.30;72.90
54558;DHT22;40452;50.080;20.040;2023-08-17T06:33:58;24.30;72.70
54558;DHT22;40452;50.080;20.040;2023-08-17T06:36:23;24.30;72.70
54558;DHT22;40452;50.080;20.040;2023-08-17T06:38:49;24.40;72.30
54558;DHT22;40452;50.080;20.040;2023-08-17T06:41:16;24.50;72.00
54558;DHT22;40452;50.080;20.040;2023-08-17T06:43:41;24.70;71.50
54558;DHT22;40452;50.080;20.040;2023-08-17T06:46:07;24.80;71.10
54558;DHT22;40452;50.080;20.040;2023-08-17T06:48:33;24.90;70.90
54558;DHT22;40452;50.080;20.040;2023-08-17T06:50:58;24.90;70.80
54558;DHT22;40452;50.080;20.040;2023-08-17T06:53:24;24.90;70.90
54558;DHT22;40452;50.080;20.040;2023-08-17T06:55:50;25.00;70.60
54558;DHT22;40452;50.080;20.040;2023-08-17T06:58:15;25.00;70.90
54558;DHT22;40452;50.080;20.040;2023-08-17T07:00:41;25.00;70.80
54558;DHT22;40452;50.080;20.040;2023-08-17T07:03:08;25.00;70.70
54558;DHT22;40452;50.080;20.040;2023-08-17T07:05:33;25.00;70.50
54558;DHT22;40452;50.080;20.040;2023-08-17T07:07:59;24.70;70.20
54558;DHT22;40452;50.080;20.040;2023-08-17T07:10:27;25.10;70.20
54558;DHT22;40452;50.080;20.040;2023-08-17T07:12:53;25.10;70.20
54558;DHT22;40452;50.080;20.040;2023-08-17T07:15:19;25.10;70.10
54558;DHT22;40452;50.080;20.040;2023-08-17T07:17:44;25.10;70.60
54558;DHT22;40452;50.080;20.040;2023-08-17T07:20:10;25.10;69.90
54558;DHT22;40452;50.080;20.040;2023-08-17T07:22:38;25.10;69.30
54558;DHT22;40452;50.080;20.040;2023-08-17T07:25:04;25.10;68.30
54558;DHT22;40452;50.080;20.040;2023-08-17T07:27:30;25.10;68.00
54558;DHT22;40452;50.080;20.040;2023-08-17T14:47:01;25.50;61.30
54558;DHT22;40452;50.080;20.040;2023-08-17T14:49:26;25.50;61.50
54558;DHT22;40452;50.080;20.040;2023-08-17T14:51:58;25.50;61.00
54558;DHT22;40452;50.080;20.040;2023-08-17T14:54:26;25.50;61.40
54558;DHT22;40452;50.080;20.040;2023-08-17T14:56:52;25.50;61.60
54558;DHT22;40452;50.080;20.040;2023-08-17T14:59:18;25.50;61.70
54558;DHT22;40452;50.080;20.040;2023-08-17T15:01:44;25.50;61.60
54558;DHT22;40452;50.080;20.040;2023-08-17T15:04:11;25.50;61.50
54558;DHT22;40452;50.080;20.040;2023-08-17T15:06:36;25.50;61.50
54558;DHT22;40452;50.080;20.040;2023-08-17T15:09:03;25.60;61.30
54558;DHT22;40452;50.080;20.040;2023-08-17T15:11:30;25.50;61.20
54558;DHT22;40452;50.080;20.040;2023-08-17T15:13:55;25.50;61.30
54558;DHT22;40452;50.080;20.040;2023-08-17T15:16:21;25.60;61.50
54558;DHT22;40452;50.080;20.040;2023-08-17T15:18:51;25.60;61.50
54558;DHT22;40452;50.080;20.040;2023-08-17T15:21:17;25.60;61.50
54558;DHT22;40452;50.080;20.040;2023-08-17T15:23:45;25.60;61.20
54558;DHT22;40452;50.080;20.040;2023-08-17T15:26:11;25.60;61.60
54558;DHT22;40452;50.080;20.040;2023-08-17T15:28:38;25.60;61.50
54558;DHT22;40452;50.080;20.040;2023-08-17T15:31:04;25.60;62.10
54558;DHT22;40452;50.080;20.040;2023-08-17T15:33:31;25.50;62.80
54558;DHT22;40452;50.080;20.040;2023-08-17T15:35:56;25.50;61.90
54558;DHT22;40452;50.080;20.040;2023-08-17T15:38:24;25.50;62.00
54558;DHT22;40452;50.080;20.040;2023-08-17T15:40:50;25.50;62.00
54558;DHT22;40452;50.080;20.040;2023-08-17T15:43:16;25.60;62.00
54558;DHT22;40452;50.080;20.040;2023-08-17T15:45:41;25.50;61.90
54558;DHT22;40452;50.080;20.040;2023-08-17T15:48:07;25.50;61.70
54558;DHT22;40452;50.080;20.040;2023-08-17T15:50:33;25.50;61.70
54558;DHT22;40452;50.080;20.040;2023-08-17T15:52:59;25.50;61.30
54558;DHT22;40452;50.080;20.040;2023-08-17T15:55:24;25.50;61.50
54558;DHT22;40452;50.080;20.040;2023-08-17T15:57:50;25.50;61.40
54558;DHT22;40452;50.080;20.040;2023-08-17T16:00:16;25.50;61.60
54558;DHT22;40452;50.080;20.040;2023-08-17T16:02:41;25.50;61.70
54558;DHT22;40452;50.080;20.040;2023-08-17T16:05:07;25.50;61.50
54558;DHT22;40452;50.080;20.040;2023-08-17T16:07:34;25.50;61.70
54558;DHT22;40452;50.080;20.040;2023-08-17T16:10:00;25.50;61.50
54558;DHT22;40452;50.080;20.040;2023-08-17T16:12:28;25.50;61.60
54558;DHT22;40452;50.080;20.040;2023-08-17T16:14:54;25.50;61.20
54558;DHT22;40452;50.080;20.040;2023-08-17T16:17:19;25.50;60.50
54558;DHT22;40452;50.080;20.040;2023-08-17T16:19:45;25.50;60.90
54558;DHT22;40452;50.080;20.040;2023-08-17T16:22:12;25.50;61.20
54558;DHT22;40452;50.080;20.040;2023-08-17T16:24:37;25.50;61.00
54558;DHT22;40452;50.080;20.040;2023-08-17T16:27:03;25.50;61.10
54558;DHT22;40452;50.080;20.040;2023-08-17T16:29:29;25.50;61.30
54558;DHT22;40452;50.080;20.040;2023-08-17T16:32:02;25.50;62.70
54558;DHT22;40452;50.080;20.040;2023-08-17T16:34:31;25.50;62.30
54558;DHT22;40452;50.080;20.040;2023-08-17T16:36:57;25.40;61.30
54558;DHT22;40452;50.080;20.040;2023-08-17T16:39:32;25.50;61.50
54558;DHT22;40452;50.080;20.040;2023-08-17T16:42:00;25.50;61.80
54558;DHT22;40452;50.080;20.040;2023-08-17T16:44:29;25.50;61.90
54558;DHT22;40452;50.080;20.040;2023-08-17T16:46:54;25.50;61.80
54558;DHT22;40452;50.080;20.040;2023-08-17T16:49:29;25.50;62.30
54558;DHT22;40452;50.080;20.040;2023-08-17T16:51:55;25.50;62.10
54558;DHT22;40452;50.080;20.040;2023-08-17T16:54:20;25.50;62.20
54558;DHT22;40452;50.080;20.040;2023-08-17T16:56:46;25.50;61.40
54558;DHT22;40452;50.080;20.040;2023-08-17T16:59:11;25.50;61.80
54558;DHT22;40452;50.080;20.040;2023-08-17T17:01:38;25.50;61.80
54558;DHT22;40452;50.080;20.040;2023-08-17T17:04:05;25.50;61.40
54558;DHT22;40452;50.080;20.040;2023-08-17T17:06:31;25.50;62.70
54558;DHT22;40452;50.080;20.040;2023-08-17T17:08:56;25.50;61.90
54558;DHT22;40452;50.080;20.040;2023-08-17T17:11:22;25.40;60.90
54558;DHT22;40452;50.080;20.040;2023-08-17T17:13:48;25.30;60.80
54558;DHT22;40452;50.080;20.040;2023-08-17T17:16:14;25.30;61.60
54558;DHT22;40452;50.080;20.040;2023-08-17T17:18:39;25.40;61.10
54558;DHT22;40452;50.080;20.040;2023-08-17T17:21:06;25.40;61.50
54558;DHT22;40452;50.080;20.040;2023-08-17T17:23:32;25.40;61.90
54558;DHT22;40452;50.080;20.040;2023-08-17T17:25:57;25.30;61.90
54558;DHT22;40452;50.080;20.040;2023-08-17T17:28:23;25.40;62.10
54558;DHT22;40452;50.080;20.040;2023-08-17T17:30:48;25.40;62.00
54558;DHT22;40452;50.080;20.040;2023-08-17T17:33:14;25.30;61.60
54558;DHT22;40452;50.080;20.040;2023-08-17T17:35:39;25.30;62.20
54558;DHT22;40452;50.080;20.040;2023-08-17T17:38:05;25.30;63.00
54558;DHT22;40452;50.080;20.040;2023-08-17T17:40:32;25.30;62.90
54558;DHT22;40452;50.080;20.040;2023-08-17T17:42:57;25.30;62.70
54558;DHT22;40452;50.080;20.040;2023-08-17T17:45:24;25.30;62.90
54558;DHT22;40452;50.080;20.040;2023-08-17T17:47:49;25.30;62.70
54558;DHT22;40452;50.080;20.040;2023-08-17T17:50:15;25.40;62.80
54558;DHT22;40452;50.080;20.040;2023-08-17T17:52:41;25.40;62.70
54558;DHT22;40452;50.080;20.040;2023-08-17T17:55:07;25.40;62.70
54558;DHT22;40452;50.080;20.040;2023-08-17T17:57:32;25.40;62.80
54558;DHT22;40452;50.080;20.040;2023-08-17T17:59:58;25.40;62.90
54558;DHT22;40452;50.080;20.040;2023-08-17T18:02:25;25.40;63.20
54558;DHT22;40452;50.080;20.040;2023-08-17T18:04:51;25.40;63.20
54558;DHT22;40452;50.080;20.040;2023-08-17T18:07:20;25.40;63.30
54558;DHT22;40452;50.080;20.040;2023-08-17T18:09:45;25.40;63.50
54558;DHT22;40452;50.080;20.040;2023-08-17T18:12:11;25.40;63.40
54558;DHT22;40452;50.080;20.040;2023-08-17T18:14:37;25.40;63.40
54558;DHT22;40452;50.080;20.040;2023-08-17T18:17:03;25.40;63.50
54558;DHT22;40452;50.080;20.040;2023-08-17T18:19:30;25.40;63.60
54558;DHT22;40452;50.080;20.040;2023-08-17T18:21:55;25.40;63.80
54558;DHT22;40452;50.080;20.040;2023-08-17T18:24:21;25.40;64.00
54558;DHT22;40452;50.080;20.040;2023-08-17T18:26:46;25.30;64.00
54558;DHT22;40452;50.080;20.040;2023-08-17T18:29:12;25.40;64.20
54558;DHT22;40452;50.080;20.040;2023-08-17T18:31:38;25.30;64.30
54558;DHT22;40452;50.080;20.040;2023-08-17T18:34:06;25.40;64.30
54558;DHT22;40452;50.080;20.040;2023-08-17T18:36:32;25.40;64.20
54558;DHT22;40452;50.080;20.040;2023-08-17T18:38:59;25.30;64.90
54558;DHT22;40452;50.080;20.040;2023-08-17T18:41:25;25.30;64.40
54558;DHT22;40452;50.080;20.040;2023-08-17T18:43:51;25.40;64.50
54558;DHT22;40452;50.080;20.040;2023-08-17T18:46:16;25.40;64.50
54558;DHT22;40452;50.080;20.040;2023-08-17T18:48:42;25.40;64.40
54558;DHT22;40452;50.080;20.040;2023-08-17T18:51:07;25.40;64.50
54558;DHT22;40452;50.080;20.040;2023-08-17T18:53:33;25.40;64.50
54558;DHT22;40452;50.080;20.040;2023-08-17T18:55:59;25.40;64.70
54558;DHT22;40452;50.080;20.040;2023-08-17T18:58:24;25.40;64.80
54558;DHT22;40452;50.080;20.040;2023-08-17T19:00:51;25.30;64.50
54558;DHT22;40452;50.080;20.040;2023-08-17T19:03:17;25.30;64.80
54558;DHT22;40452;50.080;20.040;2023-08-17T19:05:42;25.40;64.80
54558;DHT22;40452;50.080;20.040;2023-08-17T19:08:11;25.40;64.90
54558;DHT22;40452;50.080;20.040;2023-08-17T19:10:36;25.40;64.90
54558;DHT22;40452;50.080;20.040;2023-08-17T19:13:02;25.40;64.90
54558;DHT22;40452;50.080;20.040;2023-08-17T19:15:28;25.40;64.90
54558;DHT22;40452;50.080;20.040;2023-08-17T19:17:53;25.30;65.00
54558;DHT22;40452;50.080;20.040;2023-08-17T19:20:20;25.40;65.10
54558;DHT22;40452;50.080;20.040;2023-08-17T19:22:46;25.40;65.30
54558;DHT22;40452;50.080;20.040;2023-08-17T19:25:11;25.30;65.10
54558;DHT22;40452;50.080;20.040;2023-08-17T19:27:37;25.30;65.10
54558;DHT22;40452;50.080;20.040;2023-08-17T19:30:03;25.40;64.70
54558;DHT22;40452;50.080;20.040;2023-08-17T19:32:29;25.30;64.70
54558;DHT22;40452;50.080;20.040;2023-08-17T19:34:54;25.30;64.70
54558;DHT22;40452;50.080;20.040;2023-08-17T19:37:20;25.30;64.70
54558;DHT22;40452;50.080;20.040;2023-08-17T19:39:48;25.30;64.70
54558;DHT22;40452;50.080;20.040;2023-08-17T19:42:13;25.20;64.50
54558;DHT22;40452;50.080;20.040;2023-08-17T19:44:39;25.30;64.60
54558;DHT22;40452;50.080;20.040;2023-08-17T19:47:05;25.30;64.70
54558;DHT22;40452;50.080;20.040;2023-08-17T19:49:31;25.30;64.60
54558;DHT22;40452;50.080;20.040;2023-08-17T19:51:56;25.30;64.60
54558;DHT22;40452;50.080;20.040;2023-08-17T19:54:22;25.30;64.70
54558;DHT22;40452;50.080;20.040;2023-08-17T19:56:48;25.30;64.70
54558;DHT22;40452;50.080;20.040;2023-08-17T19:59:13;25.30;64.70
54558;DHT22;40452;50.080;20.040;2023-08-17T20:01:39;25.30;64.80
54558;DHT22;40452;50.080;20.040;2023-08-17T20:04:05;25.30;64.80
54558;DHT22;40452;50.080;20.040;2023-08-17T20:06:31;25.10;64.70
54558;DHT22;40452;50.080;20.040;2023-08-17T20:08:57;25.20;65.20
54558;DHT22;40452;50.080;20.040;2023-08-17T20:11:22;25.20;65.00
54558;DHT22;40452;50.080;20.040;2023-08-17T20:13:48;25.20;65.10
54558;DHT22;40452;50.080;20.040;2023-08-17T20:16:14;25.10;64.70
54558;DHT22;40452;50.080;20.040;2023-08-17T20:18:39;25.10;64.80
54558;DHT22;40452;50.080;20.040;2023-08-17T20:21:05;25.10;65.10
54558;DHT22;40452;50.080;20.040;2023-08-17T20:23:32;25.10;65.40
54558;DHT22;40452;50.080;20.040;2023-08-17T20:25:58;25.20;65.20
54558;DHT22;40452;50.080;20.040;2023-08-17T20:28:24;25.20;64.70
54558;DHT22;40452;50.080;20.040;2023-08-17T20:30:57;25.20;64.70
54558;DHT22;40452;50.080;20.040;2023-08-17T20:33:26;25.20;64.70
54558;DHT22;40452;50.080;20.040;2023-08-17T20:35:53;25.20;64.70
54558;DHT22;40452;50.080;20.040;2023-08-17T20:38:23;25.20;64.60
54558;DHT22;40452;50.080;20.040;2023-08-17T20:40:50;25.20;64.60
54558;DHT22;40452;50.080;20.040;2023-08-17T20:43:16;25.20;64.60
54558;DHT22;40452;50.080;20.040;2023-08-17T20:45:42;25.20;64.60
54558;DHT22;40452;50.080;20.040;2023-08-17T20:48:08;25.20;64.90
54558;DHT22;40452;50.080;20.040;2023-08-17T20:50:37;25.20;64.90
54558;DHT22;40452;50.080;20.040;2023-08-17T20:53:04;25.20;65.00
54558;DHT22;40452;50.080;20.040;2023-08-17T20:55:36;25.30;64.80
54558;DHT22;40452;50.080;20.040;2023-08-17T20:58:02;25.20;65.00
54558;DHT22;40452;50.080;20.040;2023-08-17T21:00:32;25.30;64.80
54558;DHT22;40452;50.080;20.040;2023-08-17T21:03:01;25.30;65.00
54558;DHT22;40452;50.080;20.040;2023-08-17T21:05:27;25.30;64.80
54558;DHT22;40452;50.080;20.040;2023-08-17T21:07:54;25.20;64.70
54558;DHT22;40452;50.080;20.040;2023-08-17T21:10:20;25.20;65.00
